createdAt,value
2023-04-30T00:01:56.691Z,10.30
2023-04-30T00:04:23.297Z,9.97
2023-04-30T00:06:49.840Z,12.87
2023-04-30T00:09:16.439Z,9.67
2023-04-30T00:11:42.883Z,9.97
2023-04-30T00:14:10.192Z,7.87
2023-04-30T00:16:36.646Z,9.77
2023-04-30T00:19:03.267Z,9.50
2023-04-30T00:21:29.728Z,10.00
2023-04-30T00:23:56.143Z,9.87
2023-04-30T00:26:22.582Z,8.50
2023-04-30T00:28:48.957Z,11.53
2023-04-30T00:31:15.426Z,8.90
2023-04-30T00:33:41.875Z,8.77
2023-04-30T00:36:08.477Z,9.50
2023-04-30T00:38:34.898Z,8.37
2023-04-30T00:41:01.372Z,9.23
2023-04-30T00:43:28.133Z,9.67
2023-04-30T00:45:54.550Z,9.97
2023-04-30T00:48:21.541Z,10.37
2023-04-30T00:50:47.962Z,12.03
2023-04-30T00:53:14.544Z,11.70
2023-04-30T00:55:41.835Z,8.77
2023-04-30T00:58:08.393Z,10.53
2023-04-30T01:00:35.132Z,10.17
2023-04-30T01:03:02.065Z,11.80
2023-04-30T01:05:28.643Z,12.03
2023-04-30T01:07:56.494Z,9.10
2023-04-30T01:10:30.256Z,9.03
2023-04-30T01:13:06.625Z,10.67
2023-04-30T01:15:42.896Z,7.43
2023-04-30T01:18:16.441Z,8.63
2023-04-30T01:21:09.132Z,7.40
2023-04-30T01:23:48.218Z,11.73
2023-04-30T01:26:27.100Z,8.50
2023-04-30T01:28:54.770Z,12.17
2023-04-30T01:31:24.049Z,10.40
2023-04-30T01:33:50.513Z,9.90
2023-04-30T01:36:19.700Z,9.57
2023-04-30T01:39:11.714Z,10.20
2023-04-30T01:41:43.951Z,13.30
2023-04-30T01:44:46.626Z,9.83
2023-04-30T01:47:20.803Z,9.70
2023-04-30T01:50:02.442Z,10.97
2023-04-30T01:52:36.490Z,11.57
2023-04-30T01:55:12.518Z,13.10
2023-04-30T01:57:43.953Z,10.20
2023-04-30T02:00:12.101Z,11.50
2023-04-30T02:02:38.708Z,12.47
2023-04-30T02:05:05.645Z,13.37
2023-04-30T02:07:38.170Z,12.40
2023-04-30T02:10:06.058Z,9.13
2023-04-30T02:12:32.797Z,11.80
2023-04-30T02:14:59.326Z,13.03
2023-04-30T02:17:25.764Z,13.30
2023-04-30T02:19:52.435Z,13.37
2023-04-30T02:22:19.078Z,10.93
2023-04-30T02:24:45.748Z,15.53
2023-04-30T02:27:12.233Z,12.27
2023-04-30T02:29:38.801Z,10.13
2023-04-30T02:32:05.756Z,9.67
2023-04-30T02:34:32.371Z,10.03
2023-04-30T02:36:58.804Z,6.87
2023-04-30T02:39:25.281Z,12.07
2023-04-30T02:41:51.709Z,11.73
2023-04-30T02:44:18.212Z,11.20
2023-04-30T02:46:44.656Z,11.70
2023-04-30T02:49:11.121Z,9.73
2023-04-30T02:51:37.559Z,11.10
2023-04-30T02:54:04.049Z,9.63
2023-04-30T02:56:30.801Z,11.87
2023-04-30T02:58:57.257Z,9.93
2023-04-30T03:01:23.768Z,10.10
2023-04-30T03:03:50.259Z,12.77
2023-04-30T03:06:16.727Z,10.00
2023-04-30T03:08:43.181Z,13.67
2023-04-30T03:11:09.668Z,10.33
2023-04-30T03:13:36.374Z,10.13
2023-04-30T03:16:06.660Z,8.53
2023-04-30T03:18:33.218Z,10.07
2023-04-30T03:20:59.678Z,10.73
2023-04-30T03:23:28.173Z,11.50
2023-04-30T03:25:54.692Z,14.23
2023-04-30T03:28:21.480Z,10.67
2023-04-30T03:30:47.914Z,11.73
2023-04-30T03:33:14.496Z,10.20
2023-04-30T03:35:41.476Z,9.07
2023-04-30T03:38:07.990Z,11.27
2023-04-30T03:40:34.357Z,9.00
2023-04-30T03:43:00.799Z,7.90
2023-04-30T03:45:27.329Z,8.30
2023-04-30T03:47:54.210Z,9.20
2023-04-30T03:50:20.785Z,9.93
2023-04-30T03:52:47.200Z,12.70
2023-04-30T03:55:13.635Z,13.03
2023-04-30T03:57:43.361Z,9.00
2023-04-30T04:00:11.115Z,10.67
2023-04-30T04:02:37.936Z,8.17
2023-04-30T04:05:04.817Z,10.20
2023-04-30T04:07:31.344Z,12.13
2023-04-30T04:09:57.868Z,12.33
2023-04-30T04:12:24.360Z,10.30
2023-04-30T04:14:50.843Z,9.80
2023-04-30T04:17:17.294Z,8.30
2023-04-30T04:19:43.735Z,8.03
2023-04-30T04:22:10.444Z,10.83
2023-04-30T04:24:38.253Z,10.87
2023-04-30T04:27:05.668Z,12.67
2023-04-30T04:29:32.759Z,9.37
2023-04-30T04:32:01.408Z,11.13
2023-04-30T04:34:28.037Z,12.97
2023-04-30T04:36:54.475Z,9.43
2023-04-30T04:39:21.025Z,8.37
2023-04-30T04:41:47.491Z,10.07
2023-04-30T04:44:13.910Z,10.17
2023-04-30T04:46:42.354Z,9.43
2023-04-30T04:49:08.983Z,8.03
2023-04-30T04:51:35.851Z,8.20
2023-04-30T04:54:02.490Z,9.30
2023-04-30T04:56:28.918Z,10.67
2023-04-30T04:58:55.336Z,10.57
2023-04-30T05:01:21.794Z,9.80
2023-04-30T05:03:49.232Z,8.57
2023-04-30T05:06:15.887Z,6.83
2023-04-30T05:08:42.422Z,9.20
2023-04-30T05:11:08.999Z,9.07
2023-04-30T05:13:35.546Z,10.77
2023-04-30T05:16:01.999Z,11.70
2023-04-30T05:18:28.482Z,9.10
2023-04-30T05:20:55.045Z,10.27
2023-04-30T05:23:21.604Z,6.97
2023-04-30T05:25:52.329Z,9.97
2023-04-30T05:28:18.806Z,9.53
2023-04-30T05:30:45.641Z,11.60
2023-04-30T05:33:12.135Z,9.00
2023-04-30T05:35:38.663Z,11.83
2023-04-30T05:38:05.267Z,13.60
2023-04-30T05:40:32.232Z,9.40
2023-04-30T05:42:58.656Z,9.87
2023-04-30T05:45:25.170Z,7.67
2023-04-30T05:47:51.676Z,10.47
2023-04-30T05:50:18.212Z,7.70
2023-04-30T05:52:44.692Z,9.33
2023-04-30T05:55:11.615Z,11.33
2023-04-30T05:57:38.254Z,8.83
2023-04-30T06:00:07.836Z,9.10
2023-04-30T06:02:34.399Z,8.80
2023-04-30T06:05:02.987Z,8.83
2023-04-30T06:07:29.631Z,9.10
2023-04-30T06:09:56.820Z,8.33
2023-04-30T06:12:23.527Z,7.87
2023-04-30T06:14:50.495Z,8.90
2023-04-30T06:17:16.923Z,11.47
2023-04-30T06:19:43.386Z,11.10
2023-04-30T06:22:09.978Z,10.40
2023-04-30T06:24:36.398Z,8.53
2023-04-30T06:27:03.395Z,13.63
2023-04-30T06:29:29.936Z,10.67
2023-04-30T06:31:56.771Z,10.47
2023-04-30T06:34:23.247Z,11.57
2023-04-30T06:36:49.707Z,8.03
2023-04-30T06:39:17.059Z,10.03
2023-04-30T06:41:43.608Z,8.93
2023-04-30T06:44:10.176Z,10.00
2023-04-30T06:46:36.780Z,8.10
2023-04-30T06:49:03.852Z,9.10
2023-04-30T06:51:31.056Z,9.20
2023-04-30T06:53:57.571Z,7.97
2023-04-30T06:56:24.947Z,10.30
2023-04-30T06:58:51.431Z,10.10
2023-04-30T07:01:17.985Z,8.83
2023-04-30T07:03:45.622Z,10.30
2023-04-30T07:06:12.167Z,10.73
2023-04-30T07:08:41.184Z,8.93
2023-04-30T07:11:07.932Z,7.13
2023-04-30T07:13:34.482Z,10.17
2023-04-30T07:16:01.043Z,8.43
2023-04-30T07:18:27.660Z,8.10
2023-04-30T07:20:54.081Z,7.43
2023-04-30T07:23:21.040Z,6.97
2023-04-30T07:25:47.632Z,12.17
2023-04-30T07:28:14.187Z,7.27
2023-04-30T07:30:40.858Z,7.03
2023-04-30T07:33:08.442Z,7.33
2023-04-30T07:35:35.331Z,7.93
2023-04-30T07:38:01.977Z,8.07
2023-04-30T07:40:35.831Z,8.17
2023-04-30T07:43:04.027Z,7.10
2023-04-30T07:45:31.361Z,7.03
2023-04-30T07:47:57.861Z,10.00
2023-04-30T07:50:24.455Z,7.73
2023-04-30T07:52:50.890Z,8.13
2023-04-30T07:55:17.362Z,7.83
2023-04-30T07:57:43.841Z,7.20
2023-04-30T08:00:10.577Z,9.13
2023-04-30T08:02:37.381Z,8.73
2023-04-30T08:05:04.199Z,5.77
2023-04-30T08:07:30.616Z,7.00
2023-04-30T08:09:57.358Z,6.37
2023-04-30T08:12:23.951Z,6.53
2023-04-30T08:14:50.410Z,5.77
2023-04-30T08:17:16.875Z,9.50
2023-04-30T08:19:43.269Z,9.60
2023-04-30T08:22:09.819Z,8.10
2023-04-30T08:24:36.318Z,8.57
2023-04-30T08:27:04.094Z,7.33
2023-04-30T08:29:30.630Z,8.83
2023-04-30T08:32:01.220Z,6.20
2023-04-30T08:34:27.684Z,5.87
2023-04-30T08:36:54.078Z,7.73
2023-04-30T08:39:20.546Z,7.17
2023-04-30T08:41:55.295Z,6.30
2023-04-30T08:44:27.270Z,9.00
2023-04-30T08:46:55.540Z,7.77
2023-04-30T08:49:24.698Z,5.80
2023-04-30T08:51:52.085Z,5.63
2023-04-30T08:54:19.390Z,6.47
2023-04-30T08:56:46.404Z,5.43
2023-04-30T08:59:13.675Z,5.07
2023-04-30T09:01:41.396Z,5.33
2023-04-30T09:04:08.563Z,5.60
2023-04-30T09:06:35.335Z,4.80
2023-04-30T09:09:16.050Z,6.30
2023-04-30T09:11:42.908Z,5.17
2023-04-30T09:14:09.568Z,6.40
2023-04-30T09:16:50.497Z,5.13
2023-04-30T09:19:28.385Z,6.20
2023-04-30T09:21:54.975Z,5.63
2023-04-30T09:24:21.714Z,4.33
2023-04-30T09:26:48.813Z,5.23
2023-04-30T09:29:15.403Z,3.47
2023-04-30T09:31:47.351Z,4.47
2023-04-30T09:34:14.560Z,3.60
2023-04-30T09:36:57.137Z,4.33
2023-04-30T09:39:24.047Z,4.07
2023-04-30T09:41:51.591Z,3.10
2023-04-30T09:44:32.498Z,3.40
2023-04-30T09:46:59.357Z,4.40
2023-04-30T09:49:27.398Z,3.40
2023-04-30T09:51:56.607Z,3.40
2023-04-30T09:54:28.303Z,2.00
2023-04-30T09:56:58.662Z,2.53
2023-04-30T09:59:35.148Z,2.57
2023-04-30T10:02:03.673Z,3.30
2023-04-30T10:04:38.362Z,2.40
2023-04-30T10:07:13.449Z,2.80
2023-04-30T10:09:50.892Z,3.70
2023-04-30T10:12:24.504Z,1.67
2023-04-30T10:15:08.760Z,2.93
2023-04-30T10:17:41.224Z,2.10
2023-04-30T10:20:10.106Z,1.97
2023-04-30T10:22:36.654Z,4.20
2023-04-30T10:25:03.888Z,1.93
2023-04-30T10:27:30.430Z,4.20
2023-04-30T10:29:57.866Z,2.80
2023-04-30T10:32:33.388Z,4.70
2023-04-30T10:35:21.585Z,3.17
2023-04-30T10:37:50.319Z,2.07
2023-04-30T10:40:19.339Z,3.10
2023-04-30T10:42:50.141Z,2.80
2023-04-30T10:45:17.180Z,3.30
2023-04-30T10:47:48.022Z,2.37
2023-04-30T10:50:14.563Z,4.00
2023-04-30T10:52:41.130Z,3.87
2023-04-30T10:55:09.103Z,3.00
2023-04-30T10:57:43.300Z,3.40
2023-04-30T11:00:10.117Z,3.20
2023-04-30T11:02:48.859Z,3.47
2023-04-30T11:05:19.605Z,6.47
2023-04-30T11:07:51.172Z,3.40
2023-04-30T11:10:22.760Z,3.60
2023-04-30T11:12:51.466Z,3.37
2023-04-30T11:15:21.271Z,4.03
2023-04-30T11:17:51.308Z,4.47
2023-04-30T11:20:23.718Z,3.03
2023-04-30T11:23:39.432Z,2.20
2023-04-30T11:26:08.397Z,3.37
2023-04-30T11:28:37.710Z,3.53
2023-04-30T11:31:04.529Z,4.13
2023-04-30T11:33:32.798Z,7.20
2023-04-30T11:36:00.691Z,6.27
2023-04-30T11:38:34.700Z,5.63
2023-04-30T11:41:02.222Z,3.77
2023-04-30T11:43:31.070Z,4.63
2023-04-30T11:46:10.167Z,3.73
2023-04-30T11:48:38.832Z,5.67
2023-04-30T11:51:26.906Z,3.20
2023-04-30T11:53:53.761Z,6.10
2023-04-30T11:56:21.933Z,4.20
2023-04-30T11:58:50.059Z,5.17
2023-04-30T12:01:17.261Z,4.13
2023-04-30T12:03:48.858Z,4.40
2023-04-30T12:06:29.047Z,3.27
2023-04-30T12:08:57.074Z,3.67
2023-04-30T12:11:28.474Z,4.27
2023-04-30T12:13:57.402Z,4.80
2023-04-30T12:16:28.737Z,3.97
2023-04-30T12:18:55.903Z,4.60
2023-04-30T12:21:23.087Z,3.40
2023-04-30T12:23:49.718Z,3.10
2023-04-30T12:26:16.315Z,3.20
2023-04-30T12:28:42.771Z,3.33
2023-04-30T12:31:09.282Z,3.93
2023-04-30T12:33:37.210Z,5.77
2023-04-30T12:36:03.894Z,3.50
2023-04-30T12:38:30.370Z,3.57
2023-04-30T12:40:57.030Z,3.60
2023-04-30T12:43:23.730Z,3.90
2023-04-30T12:45:52.295Z,3.17
2023-04-30T12:48:25.900Z,5.50
2023-04-30T12:51:01.259Z,3.20
2023-04-30T12:53:29.033Z,4.13
2023-04-30T12:56:16.953Z,2.30
2023-04-30T12:58:50.108Z,5.47
2023-04-30T13:01:21.742Z,4.93
2023-04-30T13:03:48.658Z,2.07
2023-04-30T13:06:15.539Z,2.50
2023-04-30T13:08:56.292Z,2.40
2023-04-30T13:11:26.310Z,2.73
2023-04-30T13:13:55.172Z,2.47
2023-04-30T13:16:21.777Z,2.57
2023-04-30T13:18:48.239Z,2.37
2023-04-30T13:21:14.746Z,3.80
2023-04-30T13:23:51.127Z,3.73
2023-04-30T13:26:18.888Z,1.30
2023-04-30T13:28:45.351Z,2.13
2023-04-30T13:31:11.823Z,2.47
2023-04-30T13:33:38.282Z,2.17
2023-04-30T13:36:04.895Z,2.13
2023-04-30T13:38:31.316Z,1.73
2023-04-30T13:40:57.758Z,2.83
2023-04-30T13:43:24.260Z,5.10
2023-04-30T13:45:51.334Z,2.37
2023-04-30T13:48:17.793Z,2.50
2023-04-30T13:50:44.217Z,2.00
2023-04-30T13:53:10.652Z,2.53
2023-04-30T13:55:37.071Z,2.77
2023-04-30T13:58:03.740Z,3.60
2023-04-30T14:00:30.167Z,3.17
2023-04-30T14:02:56.904Z,1.80
2023-04-30T14:05:23.819Z,1.67
2023-04-30T14:07:50.270Z,2.67
2023-04-30T14:10:16.754Z,2.00
2023-04-30T14:12:43.210Z,1.27
2023-04-30T14:15:10.101Z,2.27
2023-04-30T14:17:36.693Z,1.67
2023-04-30T14:20:03.950Z,1.30
2023-04-30T14:22:31.245Z,1.97
2023-04-30T14:24:57.669Z,2.90
2023-04-30T14:27:25.354Z,2.50
2023-04-30T14:29:51.880Z,3.17
2023-04-30T14:32:18.526Z,2.13
2023-04-30T14:34:45.299Z,4.13
2023-04-30T14:37:11.818Z,2.70
2023-04-30T14:39:38.215Z,2.47
2023-04-30T14:42:04.820Z,2.43
2023-04-30T14:44:32.272Z,1.63
2023-04-30T14:46:58.796Z,1.83
2023-04-30T14:49:25.210Z,2.33
2023-04-30T14:51:51.672Z,2.83
2023-04-30T14:54:18.228Z,2.33
2023-04-30T14:56:44.987Z,2.30
2023-04-30T14:59:12.020Z,1.80
2023-04-30T15:01:38.659Z,3.37
2023-04-30T15:04:05.704Z,2.00
2023-04-30T15:06:32.179Z,2.70
2023-04-30T15:08:58.698Z,1.83
2023-04-30T15:11:25.448Z,2.37
2023-04-30T15:13:53.068Z,2.13
2023-04-30T15:16:19.649Z,1.27
2023-04-30T15:18:47.052Z,1.40
2023-04-30T15:21:13.482Z,3.23
2023-04-30T15:23:40.238Z,2.93
2023-04-30T15:26:07.028Z,3.23
2023-04-30T15:28:33.759Z,2.47
2023-04-30T15:31:06.384Z,2.07
2023-04-30T15:33:34.452Z,2.77
2023-04-30T15:36:01.332Z,1.33
2023-04-30T15:38:27.934Z,1.17
2023-04-30T15:40:54.440Z,2.13
2023-04-30T15:43:21.495Z,1.27
2023-04-30T15:45:48.416Z,2.10
2023-04-30T15:48:15.359Z,2.07
2023-04-30T15:50:41.777Z,2.87
2023-04-30T15:53:08.261Z,2.00
2023-04-30T15:55:34.962Z,2.43
2023-04-30T15:58:01.592Z,2.63
2023-04-30T16:00:28.719Z,2.83
2023-04-30T16:02:55.578Z,4.40
2023-04-30T16:05:22.265Z,2.77
2023-04-30T16:07:48.988Z,3.40
2023-04-30T16:10:15.561Z,2.00
2023-04-30T16:12:42.025Z,3.37
2023-04-30T16:15:09.980Z,2.13
2023-04-30T16:17:36.557Z,1.90
2023-04-30T16:20:03.403Z,1.63
2023-04-30T16:22:30.297Z,2.13
2023-04-30T16:24:57.620Z,1.27
2023-04-30T16:27:24.205Z,2.23
2023-04-30T16:29:50.691Z,2.63
2023-04-30T16:32:17.366Z,4.13
2023-04-30T16:34:43.871Z,2.83
2023-04-30T16:37:10.642Z,2.50
2023-04-30T16:39:37.259Z,3.70
2023-04-30T16:42:03.671Z,1.90
2023-04-30T16:44:30.112Z,2.87
2023-04-30T16:46:59.434Z,1.67
2023-04-30T16:49:25.836Z,0.97
2023-04-30T16:51:52.301Z,1.57
2023-04-30T16:54:18.723Z,2.63
2023-04-30T16:56:45.334Z,2.17
2023-04-30T16:59:11.839Z,3.57
2023-04-30T17:01:38.270Z,2.60
2023-04-30T17:04:04.900Z,1.63
2023-04-30T17:06:32.825Z,3.07
2023-04-30T17:08:59.340Z,1.37
2023-04-30T17:11:25.849Z,4.23
2023-04-30T17:13:54.534Z,3.27
2023-04-30T17:16:21.172Z,2.80
2023-04-30T17:18:47.798Z,4.87
2023-04-30T17:21:14.762Z,3.23
2023-04-30T17:23:41.381Z,5.90
2023-04-30T17:26:07.904Z,4.17
2023-04-30T17:28:34.672Z,4.10
2023-04-30T17:31:06.717Z,3.77
2023-04-30T17:33:33.856Z,3.03
2023-04-30T17:36:00.281Z,3.00
2023-04-30T17:38:26.965Z,4.40
2023-04-30T17:40:54.225Z,1.60
2023-04-30T17:43:20.777Z,4.50
2023-04-30T17:45:47.414Z,3.00
2023-04-30T17:48:13.921Z,3.27
2023-04-30T17:50:40.461Z,4.40
2023-04-30T17:53:06.931Z,2.67
2023-04-30T17:55:33.626Z,2.00
2023-04-30T17:58:00.136Z,3.37
2023-04-30T18:00:26.833Z,3.67
2023-04-30T18:02:53.326Z,2.53
2023-04-30T18:05:19.915Z,5.23
2023-04-30T18:07:47.092Z,5.33
2023-04-30T18:10:13.575Z,3.10
2023-04-30T18:12:40.488Z,4.07
2023-04-30T18:15:08.575Z,2.83
2023-04-30T18:17:37.082Z,2.20
2023-04-30T18:20:04.501Z,2.87
2023-04-30T18:22:30.968Z,3.07
2023-04-30T18:24:57.571Z,3.87
2023-04-30T18:27:24.105Z,2.53
2023-04-30T18:29:51.569Z,3.70
2023-04-30T18:32:18.268Z,3.57
2023-04-30T18:34:44.844Z,3.60
2023-04-30T18:37:11.315Z,3.30
2023-04-30T18:39:37.753Z,2.93
2023-04-30T18:42:04.455Z,3.70
2023-04-30T18:44:34.856Z,4.37
2023-04-30T18:47:01.461Z,3.70
2023-04-30T18:49:27.993Z,1.97
2023-04-30T18:51:55.429Z,3.50
2023-04-30T18:54:22.637Z,2.97
2023-04-30T18:56:49.521Z,3.07
2023-04-30T18:59:16.543Z,2.80
2023-04-30T19:01:43.148Z,3.00
2023-04-30T19:04:13.626Z,3.77
2023-04-30T19:06:40.239Z,2.50
2023-04-30T19:09:06.965Z,2.70
2023-04-30T19:11:35.610Z,4.23
2023-04-30T19:14:02.353Z,3.77
2023-04-30T19:16:28.818Z,2.13
2023-04-30T19:18:55.340Z,2.30
2023-04-30T19:21:21.771Z,2.70
2023-04-30T19:23:48.215Z,2.50
2023-04-30T19:26:14.771Z,2.70
2023-04-30T19:28:41.296Z,5.47
2023-04-30T19:31:08.073Z,2.57
2023-04-30T19:33:38.322Z,5.23
2023-04-30T19:36:05.412Z,2.37
2023-04-30T19:38:31.834Z,2.33
2023-04-30T19:40:59.846Z,3.13
2023-04-30T19:43:26.535Z,3.47
2023-04-30T19:45:54.873Z,3.63
2023-04-30T19:48:23.145Z,3.20
2023-04-30T19:50:51.410Z,4.13
2023-04-30T19:53:17.983Z,3.90
2023-04-30T19:55:45.917Z,4.77
2023-04-30T19:58:12.447Z,5.30
2023-04-30T20:00:42.932Z,4.73
2023-04-30T20:03:09.501Z,4.87
2023-04-30T20:05:36.606Z,3.87
2023-04-30T20:08:04.441Z,2.40
2023-04-30T20:10:31.644Z,4.17
2023-04-30T20:12:58.044Z,2.83
2023-04-30T20:15:25.052Z,3.93
2023-04-30T20:17:52.928Z,2.40
2023-04-30T20:20:21.012Z,2.43
2023-04-30T20:22:50.339Z,3.60
2023-04-30T20:25:16.964Z,4.30
2023-04-30T20:27:43.793Z,4.77
2023-04-30T20:30:10.940Z,4.40
2023-04-30T20:32:39.020Z,4.00
2023-04-30T20:35:07.269Z,3.70
2023-04-30T20:37:34.683Z,3.77
2023-04-30T20:40:01.446Z,3.33
2023-04-30T20:42:28.055Z,2.90
2023-04-30T20:44:55.213Z,3.40
2023-04-30T20:47:22.420Z,3.13
2023-04-30T20:49:48.880Z,4.23
2023-04-30T20:52:15.470Z,4.03
2023-04-30T20:54:42.142Z,4.93
2023-04-30T20:57:09.429Z,3.10
2023-04-30T20:59:37.154Z,4.03
2023-04-30T21:02:04.397Z,2.93
2023-04-30T21:04:31.202Z,4.13
2023-04-30T21:06:57.661Z,3.90
2023-04-30T21:09:24.188Z,4.30
2023-04-30T21:11:50.682Z,4.77
2023-04-30T21:14:17.463Z,4.30
2023-04-30T21:16:44.623Z,5.07
2023-04-30T21:19:11.178Z,2.83
2023-04-30T21:21:37.660Z,4.57
2023-04-30T21:24:05.181Z,4.53
2023-04-30T21:26:31.784Z,2.97
2023-04-30T21:28:58.381Z,4.30
2023-04-30T21:31:24.876Z,4.60
2023-04-30T21:33:51.575Z,5.67
2023-04-30T21:36:18.282Z,2.63
2023-04-30T21:38:44.989Z,5.57
2023-04-30T21:41:15.762Z,2.20
2023-04-30T21:43:43.108Z,4.63
2023-04-30T21:46:10.446Z,2.53
2023-04-30T21:48:38.390Z,2.73
2023-04-30T21:51:12.686Z,5.37
2023-04-30T21:53:39.304Z,5.00
2023-04-30T21:56:07.541Z,5.60
2023-04-30T21:58:34.961Z,6.57
2023-04-30T22:01:02.038Z,2.73
2023-04-30T22:03:28.647Z,5.20
2023-04-30T22:05:55.213Z,4.37
2023-04-30T22:08:21.753Z,3.37
2023-04-30T22:10:48.318Z,6.23
2023-04-30T22:13:15.165Z,3.50
2023-04-30T22:18:13.377Z,4.43
2023-04-30T22:20:39.826Z,6.10
2023-04-30T22:23:06.655Z,4.80
2023-04-30T22:25:33.305Z,4.43
2023-04-30T22:27:59.770Z,3.07
2023-04-30T22:30:26.313Z,4.00
2023-04-30T22:32:56.850Z,4.07
2023-04-30T22:35:23.826Z,3.83
2023-04-30T22:37:50.341Z,4.83
2023-04-30T22:40:16.758Z,4.73
2023-04-30T22:42:43.696Z,6.07
2023-04-30T22:45:10.441Z,4.40
2023-04-30T22:47:37.255Z,4.93
2023-04-30T22:50:04.282Z,7.83
2023-04-30T22:52:32.008Z,3.40
2023-04-30T22:55:00.198Z,3.73
2023-04-30T22:57:27.058Z,3.83
2023-04-30T22:59:54.218Z,3.90
2023-04-30T23:02:21.015Z,4.67
2023-04-30T23:04:47.536Z,5.50
2023-04-30T23:07:14.409Z,3.93
2023-04-30T23:09:40.894Z,6.80
2023-04-30T23:12:07.601Z,5.23
2023-04-30T23:14:34.010Z,6.07
2023-04-30T23:17:00.775Z,5.00
2023-04-30T23:19:27.421Z,9.60
2023-04-30T23:21:53.958Z,5.13
2023-04-30T23:24:20.487Z,5.10
2023-04-30T23:26:47.254Z,7.13
2023-04-30T23:29:14.691Z,3.70
2023-04-30T23:31:41.254Z,4.33
2023-04-30T23:34:07.713Z,3.27
2023-04-30T23:36:34.178Z,5.10
2023-04-30T23:39:00.626Z,7.50
2023-04-30T23:41:27.171Z,4.47
2023-04-30T23:43:53.677Z,7.93
2023-04-30T23:46:20.705Z,6.37
2023-04-30T23:48:47.150Z,4.53
2023-04-30T23:51:13.653Z,2.40
2023-04-30T23:53:40.647Z,6.37
2023-04-30T23:56:08.482Z,5.63
2023-04-30T23:58:35.177Z,3.40
